PWSweather.com
Personal Weather Stations
Station Observations
KNVELKO7
Elko, NV 89801

Elko, NV 89801

Lat: 40.963233, Lon: -115.592836

Elevation: 5230

Station Type: WS-2812

High Low Average
Temperature 53.8°F12.1°C 31.1°F-0.5°C 41.8°F5.4°C
Dew Point 17.3°F-8.2°C -0.4°F-18.0°C 10.0°F-12.2°C
Winds 20.8 mph 33.5 kmh Calm Calm 9.0 mph SW14.5 kmh SW
Wind Gusts 23.5 mph37.8 kmh 0.2 mph0.3 kmh 12.0 mph19.3 kmh
Humidity 43% 21% 28%
Pressure 30.20 in1022.7 mb 30.06 in1017.9 mb -
Precipitation 0.00 in0.0 mm - -
Hour Temp Dew Point Humidity Winds Wind Gusts Pressure Precip Precip Rate Daily Precip Total
12:02 AM 39.2°F4.0°C 3.2°F-16.0°C 22% 11.8 mph SW19.0 kmh SW 14.3 mph23.0 kmh 30.19 in1022.4 mb 0.00 in0.0 mm 0.00 in/hr0.0 mm/hr 0.00 in0.0 mm
12:07 AM 39.2°F4.0°C 3.2°F-16.0°C 22% 11.4 mph SW18.3 kmh SW 16.1 mph25.9 kmh 30.19 in1022.4 mb 0.00 in0.0 mm 0.00 in/hr0.0 mm/hr 0.00 in0.0 mm
12:12 AM 39.2°F4.0°C 3.2°F-16.0°C 22% 9.6 mph SW15.4 kmh SW 16.1 mph25.9 kmh 30.19 in1022.4 mb 0.00 in0.0 mm 0.00 in/hr0.0 mm/hr 0.00 in0.0 mm
12:17 AM 39.2°F4.0°C 3.2°F-16.0°C 22% 8.9 mph WSW14.3 kmh WSW 13.4 mph21.6 kmh 30.19 in1022.4 mb 0.00 in0.0 mm 0.00 in/hr0.0 mm/hr 0.00 in0.0 mm
12:22 AM 39.1°F3.9°C 3.1°F-16.1°C 22% 9.5 mph SW15.3 kmh SW 11.2 mph18.0 kmh 30.19 in1022.4 mb 0.00 in0.0 mm 0.00 in/hr0.0 mm/hr 0.00 in0.0 mm
12:27 AM 38.9°F3.8°C 3.0°F-16.1°C 22% 10.8 mph SW17.4 kmh SW 11.0 mph17.7 kmh 30.19 in1022.4 mb 0.00 in0.0 mm 0.00 in/hr0.0 mm/hr 0.00 in0.0 mm
12:32 AM 38.7°F3.7°C 2.8°F-16.2°C 22% 8.5 mph SW13.7 kmh SW 11.9 mph19.2 kmh 30.19 in1022.4 mb 0.00 in0.0 mm 0.00 in/hr0.0 mm/hr 0.00 in0.0 mm
12:37 AM 38.5°F3.6°C 2.6°F-16.3°C 22% 8.4 mph SW13.5 kmh SW 11.9 mph19.2 kmh 30.19 in1022.4 mb 0.00 in0.0 mm 0.00 in/hr0.0 mm/hr 0.00 in0.0 mm
12:42 AM 38.3°F3.5°C 2.5°F-16.4°C 22% 8.6 mph SW13.8 kmh SW 10.7 mph17.2 kmh 30.19 in1022.4 mb 0.00 in0.0 mm 0.00 in/hr0.0 mm/hr 0.00 in0.0 mm
12:47 AM 38.0°F3.3°C 2.3°F-16.5°C 22% 9.9 mph SW15.9 kmh SW 11.6 mph18.7 kmh 30.19 in1022.4 mb 0.00 in0.0 mm 0.00 in/hr0.0 mm/hr 0.00 in0.0 mm
12:52 AM 37.8°F3.2°C 2.1°F-16.6°C 22% 11.9 mph WSW19.2 kmh WSW 14.5 mph23.3 kmh 30.19 in1022.4 mb 0.00 in0.0 mm 0.00 in/hr0.0 mm/hr 0.00 in0.0 mm
12:57 AM 37.8°F3.2°C 2.1°F-16.6°C 22% 17.0 mph SW27.4 kmh SW 17.2 mph27.7 kmh 30.19 in1022.4 mb 0.00 in0.0 mm 0.00 in/hr0.0 mm/hr 0.00 in0.0 mm
01:02 AM 37.8°F3.2°C 2.1°F-16.6°C 22% 9.6 mph SW15.4 kmh SW 17.2 mph27.7 kmh 30.19 in1022.4 mb 0.00 in0.0 mm 0.00 in/hr0.0 mm/hr 0.00 in0.0 mm
01:07 AM 37.8°F3.2°C 1.2°F-17.1°C 21% 14.6 mph WSW23.5 kmh WSW 17.9 mph28.8 kmh 30.19 in1022.4 mb 0.00 in0.0 mm 0.00 in/hr0.0 mm/hr 0.00 in0.0 mm
01:12 AM 37.8°F3.2°C 1.2°F-17.1°C 21% 13.1 mph SW21.1 kmh SW 17.9 mph28.8 kmh 30.19 in1022.4 mb 0.00 in0.0 mm 0.00 in/hr0.0 mm/hr 0.00 in0.0 mm
01:17 AM 37.4°F3.0°C 0.9°F-17.3°C 21% 12.4 mph SW20.0 kmh SW 13.4 mph21.6 kmh 30.19 in1022.4 mb 0.00 in0.0 mm 0.00 in/hr0.0 mm/hr 0.00 in0.0 mm
01:22 AM 37.3°F2.9°C 1.6°F-16.9°C 22% 12.1 mph SW19.5 kmh SW 14.1 mph22.7 kmh 30.19 in1022.4 mb 0.00 in0.0 mm 0.00 in/hr0.0 mm/hr 0.00 in0.0 mm
01:27 AM 37.3°F2.9°C 1.6°F-16.9°C 22% 11.7 mph WSW18.8 kmh WSW 15.9 mph25.6 kmh 30.19 in1022.4 mb 0.00 in0.0 mm 0.00 in/hr0.0 mm/hr 0.00 in0.0 mm
01:32 AM 37.4°F3.0°C 1.8°F-16.8°C 22% 12.4 mph SW20.0 kmh SW 15.9 mph25.6 kmh 30.19 in1022.4 mb 0.00 in0.0 mm 0.00 in/hr0.0 mm/hr 0.00 in0.0 mm
01:37 AM 37.6°F3.1°C 1.0°F-17.2°C 21% 14.6 mph SW23.5 kmh SW 17.9 mph28.8 kmh 30.19 in1022.4 mb 0.00 in0.0 mm 0.00 in/hr0.0 mm/hr 0.00 in0.0 mm
01:42 AM 38.2°F3.4°C 1.4°F-17.0°C 21% 12.6 mph SW20.3 kmh SW 17.9 mph28.8 kmh 30.19 in1022.4 mb 0.00 in0.0 mm 0.00 in/hr0.0 mm/hr 0.00 in0.0 mm
01:47 AM 38.3°F3.5°C 1.6°F-16.9°C 21% 14.0 mph SW22.5 kmh SW 15.7 mph25.3 kmh 30.19 in1022.4 mb 0.00 in0.0 mm 0.00 in/hr0.0 mm/hr 0.00 in0.0 mm
01:52 AM 38.5°F3.6°C 1.8°F-16.8°C 21% 15.9 mph SW25.6 kmh SW 17.7 mph28.5 kmh 30.19 in1022.4 mb 0.00 in0.0 mm 0.00 in/hr0.0 mm/hr 0.00 in0.0 mm
01:57 AM 38.5°F3.6°C 1.8°F-16.8°C 21% 13.6 mph SW21.9 kmh SW 17.7 mph28.5 kmh 30.19 in1022.4 mb 0.00 in0.0 mm 0.00 in/hr0.0 mm/hr 0.00 in0.0 mm
02:02 AM 38.5°F3.6°C 1.8°F-16.8°C 21% 12.5 mph WSW20.1 kmh WSW 18.6 mph29.9 kmh 30.19 in1022.4 mb 0.00 in0.0 mm 0.00 in/hr0.0 mm/hr 0.00 in0.0 mm
02:07 AM 38.5°F3.6°C 1.8°F-16.8°C 21% 12.2 mph SW19.6 kmh SW 18.6 mph29.9 kmh 30.18 in1022.0 mb 0.00 in0.0 mm 0.00 in/hr0.0 mm/hr 0.00 in0.0 mm
02:12 AM 38.3°F3.5°C 1.6°F-16.9°C 21% 10.8 mph SW17.4 kmh SW 16.1 mph25.9 kmh 30.18 in1022.0 mb 0.00 in0.0 mm 0.00 in/hr0.0 mm/hr 0.00 in0.0 mm
02:17 AM 38.2°F3.4°C 1.4°F-17.0°C 21% 11.8 mph SW19.0 kmh SW 13.0 mph20.9 kmh 30.18 in1022.0 mb 0.00 in0.0 mm 0.00 in/hr0.0 mm/hr 0.00 in0.0 mm
02:22 AM 38.3°F3.5°C 1.6°F-16.9°C 21% 12.1 mph SW19.5 kmh SW 14.1 mph22.7 kmh 30.18 in1022.0 mb 0.00 in0.0 mm 0.00 in/hr0.0 mm/hr 0.00 in0.0 mm
02:27 AM 38.3°F3.5°C 1.6°F-16.9°C 21% 13.6 mph SW21.9 kmh SW 15.2 mph24.5 kmh 30.18 in1022.0 mb 0.00 in0.0 mm 0.00 in/hr0.0 mm/hr 0.00 in0.0 mm
02:32 AM 38.2°F3.4°C 1.4°F-17.0°C 21% 12.7 mph WSW20.4 kmh WSW 16.8 mph27.0 kmh 30.18 in1022.0 mb 0.00 in0.0 mm 0.00 in/hr0.0 mm/hr 0.00 in0.0 mm
02:37 AM 38.0°F3.3°C 1.4°F-17.0°C 21% 14.3 mph SW23.0 kmh SW 16.8 mph27.0 kmh 30.19 in1022.4 mb 0.00 in0.0 mm 0.00 in/hr0.0 mm/hr 0.00 in0.0 mm
02:42 AM 38.0°F3.3°C 1.4°F-17.0°C 21% 12.9 mph SW20.8 kmh SW 15.7 mph25.3 kmh 30.19 in1022.4 mb 0.00 in0.0 mm 0.00 in/hr0.0 mm/hr 0.00 in0.0 mm
02:47 AM 38.0°F3.3°C 1.4°F-17.0°C 21% 15.8 mph WSW25.4 kmh WSW 18.6 mph29.9 kmh 30.18 in1022.0 mb 0.00 in0.0 mm 0.00 in/hr0.0 mm/hr 0.00 in0.0 mm
02:52 AM 37.8°F3.2°C 1.2°F-17.1°C 21% 12.5 mph SW20.1 kmh SW 18.6 mph29.9 kmh 30.18 in1022.0 mb 0.00 in0.0 mm 0.00 in/hr0.0 mm/hr 0.00 in0.0 mm
02:57 AM 37.6°F3.1°C 1.0°F-17.2°C 21% 13.2 mph WSW21.2 kmh WSW 14.8 mph23.8 kmh 30.18 in1022.0 mb 0.00 in0.0 mm 0.00 in/hr0.0 mm/hr 0.00 in0.0 mm
03:03 AM 37.4°F3.0°C 1.8°F-16.8°C 22% 13.1 mph SW21.1 kmh SW 14.8 mph23.8 kmh 30.18 in1022.0 mb 0.00 in0.0 mm 0.00 in/hr0.0 mm/hr 0.00 in0.0 mm
03:08 AM 37.3°F2.9°C 1.6°F-16.9°C 22% 12.8 mph WSW20.6 kmh WSW 14.3 mph23.0 kmh 30.19 in1022.4 mb 0.00 in0.0 mm 0.00 in/hr0.0 mm/hr 0.00 in0.0 mm
03:13 AM 37.1°F2.8°C 1.4°F-17.0°C 22% 10.0 mph WSW16.1 kmh WSW 13.9 mph22.4 kmh 30.19 in1022.4 mb 0.00 in0.0 mm 0.00 in/hr0.0 mm/hr 0.00 in0.0 mm
03:18 AM 36.7°F2.6°C 1.2°F-17.1°C 22% 10.4 mph WSW16.7 kmh WSW 11.4 mph18.3 kmh 30.19 in1022.4 mb 0.00 in0.0 mm 0.00 in/hr0.0 mm/hr 0.00 in0.0 mm
03:22 AM 36.5°F2.5°C 1.0°F-17.2°C 22% 10.6 mph SW17.1 kmh SW 12.1 mph19.5 kmh 30.19 in1022.4 mb 0.00 in0.0 mm 0.00 in/hr0.0 mm/hr 0.00 in0.0 mm
03:27 AM 36.4°F2.4°C 0.9°F-17.3°C 22% 10.6 mph WSW17.1 kmh WSW 12.5 mph20.1 kmh 30.19 in1022.4 mb 0.00 in0.0 mm 0.00 in/hr0.0 mm/hr 0.00 in0.0 mm
03:32 AM 36.4°F2.4°C 1.7°F-16.8°C 23% 10.3 mph SW16.6 kmh SW 13.0 mph20.9 kmh 30.19 in1022.4 mb 0.00 in0.0 mm 0.00 in/hr0.0 mm/hr 0.00 in0.0 mm
03:37 AM 36.2°F2.3°C 1.6°F-16.9°C 23% 11.4 mph SW18.3 kmh SW 13.6 mph21.9 kmh 30.19 in1022.4 mb 0.00 in0.0 mm 0.00 in/hr0.0 mm/hr 0.00 in0.0 mm
03:42 AM 36.2°F2.3°C 1.6°F-16.9°C 23% 9.5 mph SW15.3 kmh SW 13.6 mph21.9 kmh 30.19 in1022.4 mb 0.00 in0.0 mm 0.00 in/hr0.0 mm/hr 0.00 in0.0 mm
03:47 AM 36.0°F2.2°C 1.4°F-17.0°C 23% 9.5 mph SW15.3 kmh SW 11.4 mph18.3 kmh 30.19 in1022.4 mb 0.00 in0.0 mm 0.00 in/hr0.0 mm/hr 0.00 in0.0 mm
03:52 AM 36.2°F2.3°C 1.6°F-16.9°C 23% 9.3 mph SW15.0 kmh SW 11.4 mph18.3 kmh 30.19 in1022.4 mb 0.00 in0.0 mm 0.00 in/hr0.0 mm/hr 0.00 in0.0 mm
03:57 AM 36.0°F2.2°C 1.4°F-17.0°C 23% 8.2 mph WSW13.2 kmh WSW 11.0 mph17.7 kmh 30.19 in1022.4 mb 0.00 in0.0 mm 0.00 in/hr0.0 mm/hr 0.00 in0.0 mm
04:03 AM 35.6°F2.0°C 1.2°F-17.1°C 23% 6.1 mph SW9.8 kmh SW 9.2 mph14.8 kmh 30.20 in1022.7 mb 0.00 in0.0 mm 0.00 in/hr0.0 mm/hr 0.00 in0.0 mm
04:08 AM 35.5°F1.9°C 1.0°F-17.2°C 23% 7.4 mph SW11.9 kmh SW 7.6 mph12.2 kmh 30.19 in1022.4 mb 0.00 in0.0 mm 0.00 in/hr0.0 mm/hr 0.00 in0.0 mm
04:13 AM 34.9°F1.6°C 0.6°F-17.4°C 23% 7.6 mph SW12.2 kmh SW 7.8 mph12.6 kmh 30.19 in1022.4 mb 0.00 in0.0 mm 0.00 in/hr0.0 mm/hr 0.00 in0.0 mm
04:18 AM 34.9°F1.6°C 1.5°F-16.9°C 24% 7.5 mph SW12.1 kmh SW 9.4 mph15.1 kmh 30.19 in1022.4 mb 0.00 in0.0 mm 0.00 in/hr0.0 mm/hr 0.00 in0.0 mm
04:23 AM 34.7°F1.5°C 1.3°F-17.1°C 24% 9.2 mph SW14.8 kmh SW 9.4 mph15.1 kmh 30.19 in1022.4 mb 0.00 in0.0 mm 0.00 in/hr0.0 mm/hr 0.00 in0.0 mm
04:28 AM 34.7°F1.5°C 1.3°F-17.1°C 24% 9.6 mph W15.4 kmh W 12.3 mph19.8 kmh 30.19 in1022.4 mb 0.00 in0.0 mm 0.00 in/hr0.0 mm/hr 0.00 in0.0 mm
04:33 AM 34.6°F1.4°C 1.1°F-17.2°C 24% 12.2 mph WSW19.6 kmh WSW 12.8 mph20.6 kmh 30.19 in1022.4 mb 0.00 in0.0 mm 0.00 in/hr0.0 mm/hr 0.00 in0.0 mm
04:38 AM 34.7°F1.5°C 1.3°F-17.1°C 24% 10.9 mph SW17.5 kmh SW 13.0 mph20.9 kmh 30.19 in1022.4 mb 0.00 in0.0 mm 0.00 in/hr0.0 mm/hr 0.00 in0.0 mm
04:43 AM 34.7°F1.5°C 1.3°F-17.1°C 24% 12.0 mph WSW19.3 kmh WSW 15.7 mph25.3 kmh 30.19 in1022.4 mb 0.00 in0.0 mm 0.00 in/hr0.0 mm/hr 0.00 in0.0 mm
04:48 AM 34.9°F1.6°C 1.5°F-16.9°C 24% 9.5 mph SW15.3 kmh SW 15.7 mph25.3 kmh 30.19 in1022.4 mb 0.00 in0.0 mm 0.00 in/hr0.0 mm/hr 0.00 in0.0 mm
04:53 AM 34.9°F1.6°C 1.5°F-16.9°C 24% 11.0 mph SW17.7 kmh SW 13.2 mph21.2 kmh 30.19 in1022.4 mb 0.00 in0.0 mm 0.00 in/hr0.0 mm/hr 0.00 in0.0 mm
04:58 AM 35.3°F1.8°C 1.7°F-16.8°C 24% 10.1 mph SW16.3 kmh SW 13.2 mph21.2 kmh 30.19 in1022.4 mb 0.00 in0.0 mm 0.00 in/hr0.0 mm/hr 0.00 in0.0 mm
05:03 AM 35.3°F1.8°C 1.7°F-16.8°C 24% 10.6 mph WSW17.1 kmh WSW 11.4 mph18.3 kmh 30.19 in1022.4 mb 0.00 in0.0 mm 0.00 in/hr0.0 mm/hr 0.00 in0.0 mm
05:08 AM 35.1°F1.7°C 1.5°F-16.9°C 24% 8.1 mph SW13.0 kmh SW 11.6 mph18.7 kmh 30.18 in1022.0 mb 0.00 in0.0 mm 0.00 in/hr0.0 mm/hr 0.00 in0.0 mm
05:13 AM 34.9°F1.6°C 1.5°F-16.9°C 24% 6.7 mph SW10.8 kmh SW 11.6 mph18.7 kmh 30.19 in1022.4 mb 0.00 in0.0 mm 0.00 in/hr0.0 mm/hr 0.00 in0.0 mm
05:18 AM 34.9°F1.6°C 1.5°F-16.9°C 24% 9.5 mph WSW15.3 kmh WSW 11.6 mph18.7 kmh 30.19 in1022.4 mb 0.00 in0.0 mm 0.00 in/hr0.0 mm/hr 0.00 in0.0 mm
05:23 AM 34.9°F1.6°C 1.5°F-16.9°C 24% 8.4 mph WSW13.5 kmh WSW 11.4 mph18.3 kmh 30.19 in1022.4 mb 0.00 in0.0 mm 0.00 in/hr0.0 mm/hr 0.00 in0.0 mm
05:28 AM 34.9°F1.6°C 1.5°F-16.9°C 24% 8.1 mph SW13.0 kmh SW 9.6 mph15.4 kmh 30.19 in1022.4 mb 0.00 in0.0 mm 0.00 in/hr0.0 mm/hr 0.00 in0.0 mm
05:33 AM 34.6°F1.4°C 1.1°F-17.2°C 24% 6.8 mph WSW10.9 kmh WSW 9.2 mph14.8 kmh 30.19 in1022.4 mb 0.00 in0.0 mm 0.00 in/hr0.0 mm/hr 0.00 in0.0 mm
05:38 AM 34.2°F1.2°C 1.6°F-16.9°C 25% 9.6 mph SW15.4 kmh SW 11.2 mph18.0 kmh 30.18 in1022.0 mb 0.00 in0.0 mm 0.00 in/hr0.0 mm/hr 0.00 in0.0 mm
05:43 AM 33.8°F1.0°C 0.5°F-17.5°C 24% 8.9 mph WSW14.3 kmh WSW 11.2 mph18.0 kmh 30.18 in1022.0 mb 0.00 in0.0 mm 0.00 in/hr0.0 mm/hr 0.00 in0.0 mm
05:48 AM 33.5°F0.8°C 0.2°F-17.7°C 24% 11.2 mph SW18.0 kmh SW 11.9 mph19.2 kmh 30.18 in1022.0 mb 0.00 in0.0 mm 0.00 in/hr0.0 mm/hr 0.00 in0.0 mm
05:53 AM 33.1°F0.6°C -0.2°F-17.9°C 24% 7.5 mph SW12.1 kmh SW 11.9 mph19.2 kmh 30.18 in1022.0 mb 0.00 in0.0 mm 0.00 in/hr0.0 mm/hr 0.00 in0.0 mm
05:58 AM 32.8°F0.4°C -0.4°F-18.0°C 24% 11.0 mph WSW17.7 kmh WSW 12.1 mph19.5 kmh 30.18 in1022.0 mb 0.00 in0.0 mm 0.00 in/hr0.0 mm/hr 0.00 in0.0 mm
06:04 AM 32.6°F0.3°C 0.3°F-17.6°C 25% 8.3 mph SW13.4 kmh SW 12.1 mph19.5 kmh 30.17 in1021.7 mb 0.00 in0.0 mm 0.00 in/hr0.0 mm/hr 0.00 in0.0 mm
06:09 AM 32.4°F0.2°C 1.0°F-17.2°C 26% 9.6 mph SW15.4 kmh SW 12.1 mph19.5 kmh 30.17 in1021.7 mb 0.00 in0.0 mm 0.00 in/hr0.0 mm/hr 0.00 in0.0 mm
06:14 AM 32.6°F0.3°C 1.2°F-17.1°C 26% 10.9 mph SW17.5 kmh SW 12.5 mph20.1 kmh 30.17 in1021.7 mb 0.00 in0.0 mm 0.00 in/hr0.0 mm/hr 0.00 in0.0 mm
06:19 AM 32.6°F0.3°C 1.2°F-17.1°C 26% 6.5 mph WSW10.5 kmh WSW 12.5 mph20.1 kmh 30.18 in1022.0 mb 0.00 in0.0 mm 0.00 in/hr0.0 mm/hr 0.00 in0.0 mm
06:24 AM 32.4°F0.2°C 1.0°F-17.2°C 26% 1.7 mph SE2.7 kmh SE 9.2 mph14.8 kmh 30.18 in1022.0 mb 0.00 in0.0 mm 0.00 in/hr0.0 mm/hr 0.00 in0.0 mm
06:29 AM 32.0°F0.0°C 0.7°F-17.4°C 26% 5.8 mph E9.3 kmh E 6.9 mph11.1 kmh 30.18 in1022.0 mb 0.00 in0.0 mm 0.00 in/hr0.0 mm/hr 0.00 in0.0 mm
06:34 AM 31.7°F-0.2°C 0.4°F-17.6°C 26% 3.7 mph E6.0 kmh E 6.9 mph11.1 kmh 30.19 in1022.4 mb 0.00 in0.0 mm 0.00 in/hr0.0 mm/hr 0.00 in0.0 mm
06:39 AM 31.7°F-0.2°C 0.4°F-17.6°C 26% 3.0 mph ESE4.8 kmh ESE 6.9 mph11.1 kmh 30.19 in1022.4 mb 0.00 in0.0 mm 0.00 in/hr0.0 mm/hr 0.00 in0.0 mm
06:44 AM 31.5°F-0.3°C 0.2°F-17.7°C 26% 6.3 mph SE10.1 kmh SE 7.2 mph11.6 kmh 30.19 in1022.4 mb 0.00 in0.0 mm 0.00 in/hr0.0 mm/hr 0.00 in0.0 mm
06:49 AM 31.5°F-0.3°C 1.1°F-17.2°C 27% 6.9 mph S11.1 kmh S 8.5 mph13.7 kmh 30.19 in1022.4 mb 0.00 in0.0 mm 0.00 in/hr0.0 mm/hr 0.00 in0.0 mm
06:54 AM 31.5°F-0.3°C 1.1°F-17.2°C 27% 5.9 mph S9.5 kmh S 8.5 mph13.7 kmh 30.19 in1022.4 mb 0.00 in0.0 mm 0.00 in/hr0.0 mm/hr 0.00 in0.0 mm
07:00 AM 31.7°F-0.2°C 1.3°F-17.1°C 27% 5.0 mph S8.0 kmh S 6.5 mph10.5 kmh 30.19 in1022.4 mb 0.00 in0.0 mm 0.00 in/hr0.0 mm/hr 0.00 in0.0 mm
07:05 AM 31.7°F-0.2°C 1.3°F-17.1°C 27% 7.2 mph SSW11.6 kmh SSW 9.4 mph15.1 kmh 30.19 in1022.4 mb 0.00 in0.0 mm 0.00 in/hr0.0 mm/hr 0.00 in0.0 mm
07:10 AM 32.0°F0.0°C 1.5°F-16.9°C 27% 2.2 mph E3.5 kmh E 9.4 mph15.1 kmh 30.20 in1022.7 mb 0.00 in0.0 mm 0.00 in/hr0.0 mm/hr 0.00 in0.0 mm
07:15 AM 32.0°F0.0°C 1.5°F-16.9°C 27% 3.5 mph SSE5.6 kmh SSE 4.9 mph7.9 kmh 30.20 in1022.7 mb 0.00 in0.0 mm 0.00 in/hr0.0 mm/hr 0.00 in0.0 mm
07:20 AM 32.4°F0.2°C 1.9°F-16.7°C 27% 2.2 mph SW3.5 kmh SW 4.9 mph7.9 kmh 30.20 in1022.7 mb 0.00 in0.0 mm 0.00 in/hr0.0 mm/hr 0.00 in0.0 mm
07:25 AM 32.9°F0.5°C 2.4°F-16.4°C 27% 9.1 mph SW14.6 kmh SW 9.6 mph15.4 kmh 30.20 in1022.7 mb 0.00 in0.0 mm 0.00 in/hr0.0 mm/hr 0.00 in0.0 mm
07:30 AM 33.5°F0.8°C 2.8°F-16.2°C 27% 5.7 mph SW9.2 kmh SW 9.6 mph15.4 kmh 30.20 in1022.7 mb 0.00 in0.0 mm 0.00 in/hr0.0 mm/hr 0.00 in0.0 mm
07:35 AM 34.2°F1.2°C 3.4°F-15.9°C 27% 3.8 mph SW6.1 kmh SW 8.1 mph13.0 kmh 30.20 in1022.7 mb 0.00 in0.0 mm 0.00 in/hr0.0 mm/hr 0.00 in0.0 mm
07:40 AM 34.9°F1.6°C 4.1°F-15.5°C 27% 5.1 mph SW8.2 kmh SW 6.9 mph11.1 kmh 30.20 in1022.7 mb 0.00 in0.0 mm 0.00 in/hr0.0 mm/hr 0.00 in0.0 mm
07:45 AM 35.8°F2.1°C 4.8°F-15.1°C 27% 11.8 mph SSW19.0 kmh SSW 12.1 mph19.5 kmh 30.19 in1022.4 mb 0.00 in0.0 mm 0.00 in/hr0.0 mm/hr 0.00 in0.0 mm
07:50 AM 36.9°F2.7°C 5.7°F-14.6°C 27% 8.1 mph SSW13.0 kmh SSW 12.8 mph20.6 kmh 30.20 in1022.7 mb 0.00 in0.0 mm 0.00 in/hr0.0 mm/hr 0.00 in0.0 mm
07:56 AM 38.2°F3.4°C 6.9°F-13.9°C 27% 10.4 mph SSW16.7 kmh SSW 13.0 mph20.9 kmh 30.20 in1022.7 mb 0.00 in0.0 mm 0.00 in/hr0.0 mm/hr 0.00 in0.0 mm
08:01 AM 39.2°F4.0°C 8.6°F-13.0°C 28% 6.6 mph SW10.6 kmh SW 13.0 mph20.9 kmh 30.20 in1022.7 mb 0.00 in0.0 mm 0.00 in/hr0.0 mm/hr 0.00 in0.0 mm
08:06 AM 40.1°F4.5°C 9.5°F-12.5°C 28% 7.4 mph SSW11.9 kmh SSW 13.0 mph20.9 kmh 30.20 in1022.7 mb 0.00 in0.0 mm 0.00 in/hr0.0 mm/hr 0.00 in0.0 mm
08:11 AM 40.9°F4.9°C 10.1°F-12.2°C 28% 8.3 mph S13.4 kmh S 10.7 mph17.2 kmh 30.20 in1022.7 mb 0.00 in0.0 mm 0.00 in/hr0.0 mm/hr 0.00 in0.0 mm
08:16 AM 41.6°F5.3°C 10.7°F-11.8°C 28% 7.4 mph S11.9 kmh S 10.7 mph17.2 kmh 30.20 in1022.7 mb 0.00 in0.0 mm 0.00 in/hr0.0 mm/hr 0.00 in0.0 mm
08:21 AM 42.1°F5.6°C 11.2°F-11.6°C 28% 6.4 mph SSW10.3 kmh SSW 10.1 mph16.3 kmh 30.20 in1022.7 mb 0.00 in0.0 mm 0.00 in/hr0.0 mm/hr 0.00 in0.0 mm
08:27 AM 42.8°F6.0°C 10.8°F-11.8°C 27% 7.8 mph SW12.6 kmh SW 10.1 mph16.3 kmh 30.20 in1022.7 mb 0.00 in0.0 mm 0.00 in/hr0.0 mm/hr 0.00 in0.0 mm
08:32 AM 43.6°F6.4°C 11.4°F-11.4°C 27% 7.8 mph S12.6 kmh S 10.5 mph16.9 kmh 30.20 in1022.7 mb 0.00 in0.0 mm 0.00 in/hr0.0 mm/hr 0.00 in0.0 mm
08:37 AM 44.1°F6.7°C 12.0°F-11.1°C 27% 7.1 mph S11.4 kmh S 10.5 mph16.9 kmh 30.20 in1022.7 mb 0.00 in0.0 mm 0.00 in/hr0.0 mm/hr 0.00 in0.0 mm
08:42 AM 44.6°F7.0°C 12.4°F-10.9°C 27% 6.9 mph SSW11.1 kmh SSW 10.7 mph17.2 kmh 30.20 in1022.7 mb 0.00 in0.0 mm 0.00 in/hr0.0 mm/hr 0.00 in0.0 mm
08:47 AM 45.0°F7.2°C 12.7°F-10.7°C 27% 8.5 mph SSW13.7 kmh SSW 10.7 mph17.2 kmh 30.20 in1022.7 mb 0.00 in0.0 mm 0.00 in/hr0.0 mm/hr 0.00 in0.0 mm
08:52 AM 45.5°F7.5°C 13.2°F-10.4°C 27% 9.3 mph SSW15.0 kmh SSW 10.5 mph16.9 kmh 30.20 in1022.7 mb 0.00 in0.0 mm 0.00 in/hr0.0 mm/hr 0.00 in0.0 mm
08:56 AM 45.9°F7.7°C 13.5°F-10.3°C 27% 9.0 mph S14.5 kmh S 10.5 mph16.9 kmh 30.20 in1022.7 mb 0.00 in0.0 mm 0.00 in/hr0.0 mm/hr 0.00 in0.0 mm
09:02 AM 46.4°F8.0°C 14.0°F-10.0°C 27% 7.6 mph SW12.2 kmh SW 12.1 mph19.5 kmh 30.20 in1022.7 mb 0.00 in0.0 mm 0.00 in/hr0.0 mm/hr 0.00 in0.0 mm
09:07 AM 47.2°F8.4°C 14.6°F-9.7°C 27% 9.1 mph SSW14.6 kmh SSW 12.1 mph19.5 kmh 30.20 in1022.7 mb 0.00 in0.0 mm 0.00 in/hr0.0 mm/hr 0.00 in0.0 mm
09:12 AM 47.9°F8.8°C 13.4°F-10.3°C 25% 9.9 mph WSW15.9 kmh WSW 13.2 mph21.2 kmh 30.20 in1022.7 mb 0.00 in0.0 mm 0.00 in/hr0.0 mm/hr 0.00 in0.0 mm
09:17 AM 48.2°F9.0°C 13.7°F-10.2°C 25% 10.1 mph SW16.3 kmh SW 13.2 mph21.2 kmh 30.20 in1022.7 mb 0.00 in0.0 mm 0.00 in/hr0.0 mm/hr 0.00 in0.0 mm
09:22 AM 48.2°F9.0°C 13.7°F-10.2°C 25% 10.4 mph SW16.7 kmh SW 12.1 mph19.5 kmh 30.19 in1022.4 mb 0.00 in0.0 mm 0.00 in/hr0.0 mm/hr 0.00 in0.0 mm
09:27 AM 47.9°F8.8°C 13.4°F-10.3°C 25% 9.4 mph SW15.1 kmh SW 15.2 mph24.5 kmh 30.19 in1022.4 mb 0.00 in0.0 mm 0.00 in/hr0.0 mm/hr 0.00 in0.0 mm
09:32 AM 47.9°F8.8°C 13.4°F-10.3°C 25% 10.0 mph WSW16.1 kmh WSW 15.2 mph24.5 kmh 30.19 in1022.4 mb 0.00 in0.0 mm 0.00 in/hr0.0 mm/hr 0.00 in0.0 mm
09:37 AM 48.2°F9.0°C 13.7°F-10.2°C 25% 7.7 mph SW12.4 kmh SW 15.0 mph24.1 kmh 30.19 in1022.4 mb 0.00 in0.0 mm 0.00 in/hr0.0 mm/hr 0.00 in0.0 mm
09:42 AM 48.4°F9.1°C 12.9°F-10.6°C 24% 11.6 mph SW18.7 kmh SW 14.5 mph23.3 kmh 30.20 in1022.7 mb 0.00 in0.0 mm 0.00 in/hr0.0 mm/hr 0.00 in0.0 mm
09:47 AM 48.6°F9.2°C 14.0°F-10.0°C 25% 4.3 mph SW6.9 kmh SW 14.5 mph23.3 kmh 30.20 in1022.7 mb 0.00 in0.0 mm 0.00 in/hr0.0 mm/hr 0.00 in0.0 mm
09:52 AM 49.3°F9.6°C 14.6°F-9.7°C 25% 8.7 mph SW14.0 kmh SW 12.1 mph19.5 kmh 30.20 in1022.7 mb 0.00 in0.0 mm 0.00 in/hr0.0 mm/hr 0.00 in0.0 mm
09:57 AM 49.7°F9.8°C 14.0°F-10.0°C 24% 9.7 mph WSW15.6 kmh WSW 12.5 mph20.1 kmh 30.20 in1022.7 mb 0.00 in0.0 mm 0.00 in/hr0.0 mm/hr 0.00 in0.0 mm
10:03 AM 49.9°F9.9°C 14.1°F-9.9°C 24% 6.4 mph WSW10.3 kmh WSW 12.5 mph20.1 kmh 30.20 in1022.7 mb 0.00 in0.0 mm 0.00 in/hr0.0 mm/hr 0.00 in0.0 mm
10:08 AM 50.0°F10.0°C 14.3°F-9.8°C 24% 8.3 mph WSW13.4 kmh WSW 10.5 mph16.9 kmh 30.20 in1022.7 mb 0.00 in0.0 mm 0.00 in/hr0.0 mm/hr 0.00 in0.0 mm
10:12 AM 50.2°F10.1°C 14.4°F-9.8°C 24% 11.2 mph SW18.0 kmh SW 11.9 mph19.2 kmh 30.19 in1022.4 mb 0.00 in0.0 mm 0.00 in/hr0.0 mm/hr 0.00 in0.0 mm
10:17 AM 49.7°F9.8°C 14.0°F-10.0°C 24% 6.6 mph W10.6 kmh W 13.9 mph22.4 kmh 30.19 in1022.4 mb 0.00 in0.0 mm 0.00 in/hr0.0 mm/hr 0.00 in0.0 mm
10:22 AM 50.2°F10.1°C 14.4°F-9.8°C 24% 4.4 mph SW7.1 kmh SW 13.9 mph22.4 kmh 30.19 in1022.4 mb 0.00 in0.0 mm 0.00 in/hr0.0 mm/hr 0.00 in0.0 mm
10:27 AM 50.9°F10.5°C 15.0°F-9.4°C 24% 5.1 mph SW8.2 kmh SW 18.1 mph29.1 kmh 30.19 in1022.4 mb 0.00 in0.0 mm 0.00 in/hr0.0 mm/hr 0.00 in0.0 mm
10:32 AM 50.9°F10.5°C 14.1°F-9.9°C 23% 9.2 mph NW14.8 kmh NW 18.1 mph29.1 kmh 30.19 in1022.4 mb 0.00 in0.0 mm 0.00 in/hr0.0 mm/hr 0.00 in0.0 mm
10:37 AM 50.4°F10.2°C 13.7°F-10.2°C 23% 12.9 mph W20.8 kmh W 16.8 mph27.0 kmh 30.19 in1022.4 mb 0.00 in0.0 mm 0.00 in/hr0.0 mm/hr 0.00 in0.0 mm
10:42 AM 50.2°F10.1°C 14.4°F-9.8°C 24% 15.9 mph W25.6 kmh W 19.7 mph31.7 kmh 30.19 in1022.4 mb 0.00 in0.0 mm 0.00 in/hr0.0 mm/hr 0.00 in0.0 mm
10:47 AM 50.4°F10.2°C 14.6°F-9.7°C 24% 16.3 mph W26.2 kmh W 19.7 mph31.7 kmh 30.19 in1022.4 mb 0.00 in0.0 mm 0.00 in/hr0.0 mm/hr 0.00 in0.0 mm
10:52 AM 50.8°F10.4°C 14.0°F-10.0°C 23% 14.6 mph NW23.5 kmh NW 17.2 mph27.7 kmh 30.19 in1022.4 mb 0.00 in0.0 mm 0.00 in/hr0.0 mm/hr 0.00 in0.0 mm
10:57 AM 50.8°F10.4°C 15.0°F-9.4°C 24% 18.5 mph W29.8 kmh W 19.2 mph30.9 kmh 30.19 in1022.4 mb 0.00 in0.0 mm 0.00 in/hr0.0 mm/hr 0.00 in0.0 mm
11:03 AM 51.5°F10.8°C 14.6°F-9.7°C 23% 16.8 mph WNW27.0 kmh WNW 21.5 mph34.6 kmh 30.19 in1022.4 mb 0.00 in0.0 mm 0.00 in/hr0.0 mm/hr 0.00 in0.0 mm
11:08 AM 51.3°F10.7°C 15.4°F-9.2°C 24% 16.0 mph WNW25.7 kmh WNW 21.5 mph34.6 kmh 30.19 in1022.4 mb 0.00 in0.0 mm 0.00 in/hr0.0 mm/hr 0.00 in0.0 mm
11:13 AM 51.5°F10.8°C 15.5°F-9.2°C 24% 15.0 mph NW24.1 kmh NW 19.2 mph30.9 kmh 30.19 in1022.4 mb 0.00 in0.0 mm 0.00 in/hr0.0 mm/hr 0.00 in0.0 mm
11:18 AM 51.5°F10.8°C 15.5°F-9.2°C 24% 20.8 mph NW33.5 kmh NW 22.4 mph36.0 kmh 30.19 in1022.4 mb 0.00 in0.0 mm 0.00 in/hr0.0 mm/hr 0.00 in0.0 mm
11:23 AM 51.3°F10.7°C 15.4°F-9.2°C 24% 12.4 mph NW20.0 kmh NW 22.4 mph36.0 kmh 30.18 in1022.0 mb 0.00 in0.0 mm 0.00 in/hr0.0 mm/hr 0.00 in0.0 mm
11:28 AM 51.5°F10.8°C 15.5°F-9.2°C 24% 13.1 mph WNW21.1 kmh WNW 18.3 mph29.5 kmh 30.18 in1022.0 mb 0.00 in0.0 mm 0.00 in/hr0.0 mm/hr 0.00 in0.0 mm
11:33 AM 51.8°F11.0°C 15.9°F-8.9°C 24% 13.6 mph WSW21.9 kmh WSW 17.0 mph27.4 kmh 30.18 in1022.0 mb 0.00 in0.0 mm 0.00 in/hr0.0 mm/hr 0.00 in0.0 mm
11:38 AM 51.8°F11.0°C 15.9°F-8.9°C 24% 11.8 mph WNW19.0 kmh WNW 18.6 mph29.9 kmh 30.18 in1022.0 mb 0.00 in0.0 mm 0.00 in/hr0.0 mm/hr 0.00 in0.0 mm
11:43 AM 52.2°F11.2°C 16.1°F-8.8°C 24% 17.4 mph W28.0 kmh W 19.2 mph30.9 kmh 30.18 in1022.0 mb 0.00 in0.0 mm 0.00 in/hr0.0 mm/hr 0.00 in0.0 mm
11:48 AM 52.2°F11.2°C 16.1°F-8.8°C 24% 16.1 mph WSW25.9 kmh WSW 19.2 mph30.9 kmh 30.18 in1022.0 mb 0.00 in0.0 mm 0.00 in/hr0.0 mm/hr 0.00 in0.0 mm
11:53 AM 52.2°F11.2°C 16.1°F-8.8°C 24% 15.0 mph WSW24.1 kmh WSW 18.1 mph29.1 kmh 30.17 in1021.7 mb 0.00 in0.0 mm 0.00 in/hr0.0 mm/hr 0.00 in0.0 mm
11:58 AM 52.2°F11.2°C 16.1°F-8.8°C 24% 10.8 mph WNW17.4 kmh WNW 15.2 mph24.5 kmh 30.18 in1022.0 mb 0.00 in0.0 mm 0.00 in/hr0.0 mm/hr 0.00 in0.0 mm
12:04 PM 52.6°F11.4°C 16.4°F-8.7°C 24% 6.6 mph WSW10.6 kmh WSW 12.3 mph19.8 kmh 30.17 in1021.7 mb 0.00 in0.0 mm 0.00 in/hr0.0 mm/hr 0.00 in0.0 mm
12:09 PM 52.9°F11.6°C 16.8°F-8.4°C 24% 17.9 mph WSW28.8 kmh WSW 19.0 mph30.6 kmh 30.17 in1021.7 mb 0.00 in0.0 mm 0.00 in/hr0.0 mm/hr 0.00 in0.0 mm
12:14 PM 52.9°F11.6°C 16.8°F-8.4°C 24% 10.5 mph WSW16.9 kmh WSW 19.0 mph30.6 kmh 30.17 in1021.7 mb 0.00 in0.0 mm 0.00 in/hr0.0 mm/hr 0.00 in0.0 mm
12:19 PM 53.3°F11.8°C 17.0°F-8.3°C 24% 14.2 mph NW22.9 kmh NW 18.1 mph29.1 kmh 30.16 in1021.3 mb 0.00 in0.0 mm 0.00 in/hr0.0 mm/hr 0.00 in0.0 mm
12:24 PM 52.9°F11.6°C 16.8°F-8.4°C 24% 13.8 mph WSW22.2 kmh WSW 18.1 mph29.1 kmh 30.16 in1021.3 mb 0.00 in0.0 mm 0.00 in/hr0.0 mm/hr 0.00 in0.0 mm
12:29 PM 53.3°F11.8°C 17.0°F-8.3°C 24% 13.8 mph WSW22.2 kmh WSW 18.1 mph29.1 kmh 30.16 in1021.3 mb 0.00 in0.0 mm 0.00 in/hr0.0 mm/hr 0.00 in0.0 mm
12:34 PM 53.6°F12.0°C 17.3°F-8.2°C 24% 16.9 mph WSW27.2 kmh WSW 18.1 mph29.1 kmh 30.16 in1021.3 mb 0.00 in0.0 mm 0.00 in/hr0.0 mm/hr 0.00 in0.0 mm
12:39 PM 53.5°F11.9°C 17.2°F-8.2°C 24% 11.3 mph NW18.2 kmh NW 18.1 mph29.1 kmh 30.15 in1021.0 mb 0.00 in0.0 mm 0.00 in/hr0.0 mm/hr 0.00 in0.0 mm
12:44 PM 52.9°F11.6°C 16.8°F-8.4°C 24% 14.8 mph W23.8 kmh W 22.1 mph35.6 kmh 30.15 in1021.0 mb 0.00 in0.0 mm 0.00 in/hr0.0 mm/hr 0.00 in0.0 mm
12:49 PM 52.4°F11.3°C 16.3°F-8.7°C 24% 13.1 mph NW21.1 kmh NW 22.1 mph35.6 kmh 30.15 in1021.0 mb 0.00 in0.0 mm 0.00 in/hr0.0 mm/hr 0.00 in0.0 mm
12:54 PM 52.4°F11.3°C 16.3°F-8.7°C 24% 15.6 mph W25.1 kmh W 18.3 mph29.5 kmh 30.15 in1021.0 mb 0.00 in0.0 mm 0.00 in/hr0.0 mm/hr 0.00 in0.0 mm
01:00 PM 52.6°F11.4°C 16.4°F-8.7°C 24% 16.4 mph NW26.4 kmh NW 19.5 mph31.4 kmh 30.15 in1021.0 mb 0.00 in0.0 mm 0.00 in/hr0.0 mm/hr 0.00 in0.0 mm
01:05 PM 52.7°F11.5°C 16.6°F-8.6°C 24% 13.5 mph NW21.7 kmh NW 19.5 mph31.4 kmh 30.15 in1021.0 mb 0.00 in0.0 mm 0.00 in/hr0.0 mm/hr 0.00 in0.0 mm
01:10 PM 52.9°F11.6°C 16.8°F-8.4°C 24% 16.1 mph NW25.9 kmh NW 23.5 mph37.8 kmh 30.15 in1021.0 mb 0.00 in0.0 mm 0.00 in/hr0.0 mm/hr 0.00 in0.0 mm
01:15 PM 52.7°F11.5°C 16.6°F-8.6°C 24% 17.2 mph WNW27.7 kmh WNW 23.5 mph37.8 kmh 30.15 in1021.0 mb 0.00 in0.0 mm 0.00 in/hr0.0 mm/hr 0.00 in0.0 mm
01:20 PM 52.7°F11.5°C 16.6°F-8.6°C 24% 14.8 mph NW23.8 kmh NW 19.0 mph30.6 kmh 30.14 in1020.7 mb 0.00 in0.0 mm 0.00 in/hr0.0 mm/hr 0.00 in0.0 mm
01:25 PM 52.7°F11.5°C 16.6°F-8.6°C 24% 14.8 mph WNW23.8 kmh WNW 19.0 mph30.6 kmh 30.14 in1020.7 mb 0.00 in0.0 mm 0.00 in/hr0.0 mm/hr 0.00 in0.0 mm
01:30 PM 52.9°F11.6°C 16.8°F-8.4°C 24% 12.4 mph W20.0 kmh W 17.9 mph28.8 kmh 30.14 in1020.7 mb 0.00 in0.0 mm 0.00 in/hr0.0 mm/hr 0.00 in0.0 mm
01:35 PM 52.9°F11.6°C 16.8°F-8.4°C 24% 16.6 mph WNW26.7 kmh WNW 18.3 mph29.5 kmh 30.14 in1020.7 mb 0.00 in0.0 mm 0.00 in/hr0.0 mm/hr 0.00 in0.0 mm
01:40 PM 53.3°F11.8°C 17.0°F-8.3°C 24% 11.9 mph NW19.2 kmh NW 18.3 mph29.5 kmh 30.14 in1020.7 mb 0.00 in0.0 mm 0.00 in/hr0.0 mm/hr 0.00 in0.0 mm
01:46 PM 53.3°F11.8°C 17.0°F-8.3°C 24% 11.9 mph WNW19.2 kmh WNW 17.7 mph28.5 kmh 30.14 in1020.7 mb 0.00 in0.0 mm 0.00 in/hr0.0 mm/hr 0.00 in0.0 mm
01:51 PM 53.8°F12.1°C 16.6°F-8.6°C 23% 12.1 mph WSW19.5 kmh WSW 17.7 mph28.5 kmh 30.13 in1020.3 mb 0.00 in0.0 mm 0.00 in/hr0.0 mm/hr 0.00 in0.0 mm
01:56 PM 53.8°F12.1°C 16.6°F-8.6°C 23% 12.4 mph NW20.0 kmh NW 19.0 mph30.6 kmh 30.13 in1020.3 mb 0.00 in0.0 mm 0.00 in/hr0.0 mm/hr 0.00 in0.0 mm
02:01 PM 53.6°F12.0°C 17.3°F-8.2°C 24% 10.7 mph W17.2 kmh W 19.0 mph30.6 kmh 30.13 in1020.3 mb 0.00 in0.0 mm 0.00 in/hr0.0 mm/hr 0.00 in0.0 mm
02:06 PM 53.8°F12.1°C 16.6°F-8.6°C 23% 11.6 mph W18.7 kmh W 16.6 mph26.7 kmh 30.12 in1020.0 mb 0.00 in0.0 mm 0.00 in/hr0.0 mm/hr 0.00 in0.0 mm
02:12 PM 53.6°F12.0°C 16.4°F-8.7°C 23% 14.5 mph WSW23.3 kmh WSW 16.6 mph26.7 kmh 30.12 in1020.0 mb 0.00 in0.0 mm 0.00 in/hr0.0 mm/hr 0.00 in0.0 mm
02:17 PM 53.6°F12.0°C 16.4°F-8.7°C 23% 15.5 mph W24.9 kmh W 16.8 mph27.0 kmh 30.12 in1020.0 mb 0.00 in0.0 mm 0.00 in/hr0.0 mm/hr 0.00 in0.0 mm
02:22 PM 53.5°F11.9°C 15.3°F-9.3°C 22% 12.9 mph W20.8 kmh W 16.8 mph27.0 kmh 30.12 in1020.0 mb 0.00 in0.0 mm 0.00 in/hr0.0 mm/hr 0.00 in0.0 mm
02:27 PM 53.6°F12.0°C 15.4°F-9.2°C 22% 14.3 mph W23.0 kmh W 16.8 mph27.0 kmh 30.11 in1019.6 mb 0.00 in0.0 mm 0.00 in/hr0.0 mm/hr 0.00 in0.0 mm
02:32 PM 53.5°F11.9°C 15.3°F-9.3°C 22% 15.8 mph W25.4 kmh W 17.2 mph27.7 kmh 30.11 in1019.6 mb 0.00 in0.0 mm 0.00 in/hr0.0 mm/hr 0.00 in0.0 mm
02:37 PM 53.8°F12.1°C 14.6°F-9.7°C 21% 12.9 mph WSW20.8 kmh WSW 19.7 mph31.7 kmh 30.11 in1019.6 mb 0.00 in0.0 mm 0.00 in/hr0.0 mm/hr 0.00 in0.0 mm
02:42 PM 53.8°F12.1°C 14.6°F-9.7°C 21% 17.3 mph WNW27.8 kmh WNW 19.7 mph31.7 kmh 30.11 in1019.6 mb 0.00 in0.0 mm 0.00 in/hr0.0 mm/hr 0.00 in0.0 mm
02:47 PM 53.8°F12.1°C 15.6°F-9.1°C 22% 11.4 mph WSW18.3 kmh WSW 18.8 mph30.3 kmh 30.11 in1019.6 mb 0.00 in0.0 mm 0.00 in/hr0.0 mm/hr 0.00 in0.0 mm
02:52 PM 53.5°F11.9°C 15.3°F-9.3°C 22% 14.6 mph SW23.5 kmh SW 16.6 mph26.7 kmh 30.11 in1019.6 mb 0.00 in0.0 mm 0.00 in/hr0.0 mm/hr 0.00 in0.0 mm
02:57 PM 53.1°F11.7°C 14.9°F-9.5°C 22% 13.6 mph WSW21.9 kmh WSW 15.7 mph25.3 kmh 30.11 in1019.6 mb 0.00 in0.0 mm 0.00 in/hr0.0 mm/hr 0.00 in0.0 mm
03:02 PM 52.6°F11.4°C 15.5°F-9.2°C 23% 14.5 mph WSW23.3 kmh WSW 19.2 mph30.9 kmh 30.11 in1019.6 mb 0.00 in0.0 mm 0.00 in/hr0.0 mm/hr 0.00 in0.0 mm
03:07 PM 52.2°F11.2°C 15.2°F-9.3°C 23% 14.6 mph WSW23.5 kmh WSW 19.2 mph30.9 kmh 30.11 in1019.6 mb 0.00 in0.0 mm 0.00 in/hr0.0 mm/hr 0.00 in0.0 mm
03:12 PM 52.0°F11.1°C 14.0°F-10.0°C 22% 16.1 mph WSW25.9 kmh WSW 19.2 mph30.9 kmh 30.11 in1019.6 mb 0.00 in0.0 mm 0.00 in/hr0.0 mm/hr 0.00 in0.0 mm
03:17 PM 52.0°F11.1°C 14.0°F-10.0°C 22% 16.7 mph WNW26.9 kmh WNW 18.6 mph29.9 kmh 30.11 in1019.6 mb 0.00 in0.0 mm 0.00 in/hr0.0 mm/hr 0.00 in0.0 mm
03:22 PM 51.5°F10.8°C 13.7°F-10.2°C 22% 18.5 mph W29.8 kmh W 19.2 mph30.9 kmh 30.11 in1019.6 mb 0.00 in0.0 mm 0.00 in/hr0.0 mm/hr 0.00 in0.0 mm
03:27 PM 51.1°F10.6°C 14.3°F-9.8°C 23% 19.9 mph W32.0 kmh W 21.9 mph35.2 kmh 30.11 in1019.6 mb 0.00 in0.0 mm 0.00 in/hr0.0 mm/hr 0.00 in0.0 mm
03:32 PM 51.1°F10.6°C 15.2°F-9.3°C 24% 17.3 mph W27.8 kmh W 21.9 mph35.2 kmh 30.11 in1019.6 mb 0.00 in0.0 mm 0.00 in/hr0.0 mm/hr 0.00 in0.0 mm
03:37 PM 51.1°F10.6°C 14.3°F-9.8°C 23% 17.9 mph WNW28.8 kmh WNW 22.4 mph36.0 kmh 30.11 in1019.6 mb 0.00 in0.0 mm 0.00 in/hr0.0 mm/hr 0.00 in0.0 mm
03:42 PM 50.9°F10.5°C 14.1°F-9.9°C 23% 19.4 mph WNW31.2 kmh WNW 22.4 mph36.0 kmh 30.11 in1019.6 mb 0.00 in0.0 mm 0.00 in/hr0.0 mm/hr 0.00 in0.0 mm
03:47 PM 50.8°F10.4°C 14.0°F-10.0°C 23% 15.6 mph WNW25.1 kmh WNW 20.1 mph32.3 kmh 30.11 in1019.6 mb 0.00 in0.0 mm 0.00 in/hr0.0 mm/hr 0.00 in0.0 mm
03:52 PM 50.8°F10.4°C 14.0°F-10.0°C 23% 18.2 mph NW29.3 kmh NW 19.5 mph31.4 kmh 30.11 in1019.6 mb 0.00 in0.0 mm 0.00 in/hr0.0 mm/hr 0.00 in0.0 mm
03:57 PM 50.4°F10.2°C 14.6°F-9.7°C 24% 15.5 mph WNW24.9 kmh WNW 19.2 mph30.9 kmh 30.11 in1019.6 mb 0.00 in0.0 mm 0.00 in/hr0.0 mm/hr 0.00 in0.0 mm
04:03 PM 50.0°F10.0°C 14.3°F-9.8°C 24% 14.2 mph NW22.9 kmh NW 18.1 mph29.1 kmh 30.12 in1020.0 mb 0.00 in0.0 mm 0.00 in/hr0.0 mm/hr 0.00 in0.0 mm
04:08 PM 49.9°F9.9°C 14.1°F-9.9°C 24% 16.9 mph W27.2 kmh W 21.5 mph34.6 kmh 30.12 in1020.0 mb 0.00 in0.0 mm 0.00 in/hr0.0 mm/hr 0.00 in0.0 mm
04:13 PM 49.7°F9.8°C 15.0°F-9.4°C 25% 17.6 mph W28.3 kmh W 21.5 mph34.6 kmh 30.12 in1020.0 mb 0.00 in0.0 mm 0.00 in/hr0.0 mm/hr 0.00 in0.0 mm
04:18 PM 49.1°F9.5°C 14.4°F-9.8°C 25% 13.4 mph WNW21.6 kmh WNW 20.8 mph33.5 kmh 30.12 in1020.0 mb 0.00 in0.0 mm 0.00 in/hr0.0 mm/hr 0.00 in0.0 mm
04:23 PM 49.0°F9.4°C 14.3°F-9.8°C 25% 16.8 mph NW27.0 kmh NW 19.9 mph32.0 kmh 30.12 in1020.0 mb 0.00 in0.0 mm 0.00 in/hr0.0 mm/hr 0.00 in0.0 mm
04:28 PM 48.6°F9.2°C 15.8°F-9.0°C 27% 14.6 mph W23.5 kmh W 19.0 mph30.6 kmh 30.11 in1019.6 mb 0.00 in0.0 mm 0.00 in/hr0.0 mm/hr 0.00 in0.0 mm
04:33 PM 48.2°F9.0°C 15.6°F-9.1°C 27% 12.9 mph W20.8 kmh W 17.2 mph27.7 kmh 30.12 in1020.0 mb 0.00 in0.0 mm 0.00 in/hr0.0 mm/hr 0.00 in0.0 mm
04:38 PM 47.9°F8.8°C 15.2°F-9.3°C 27% 14.0 mph NW22.5 kmh NW 18.1 mph29.1 kmh 30.12 in1020.0 mb 0.00 in0.0 mm 0.00 in/hr0.0 mm/hr 0.00 in0.0 mm
04:43 PM 47.7°F8.7°C 15.1°F-9.4°C 27% 16.8 mph NW27.0 kmh NW 18.1 mph29.1 kmh 30.12 in1020.0 mb 0.00 in0.0 mm 0.00 in/hr0.0 mm/hr 0.00 in0.0 mm
04:48 PM 47.5°F8.6°C 15.8°F-9.0°C 28% 12.8 mph W20.6 kmh W 17.4 mph28.0 kmh 30.11 in1019.6 mb 0.00 in0.0 mm 0.00 in/hr0.0 mm/hr 0.00 in0.0 mm
04:53 PM 47.3°F8.5°C 15.7°F-9.1°C 28% 12.6 mph NW20.3 kmh NW 15.2 mph24.5 kmh 30.12 in1020.0 mb 0.00 in0.0 mm 0.00 in/hr0.0 mm/hr 0.00 in0.0 mm
04:58 PM 47.0°F8.3°C 15.4°F-9.2°C 28% 16.5 mph W26.6 kmh W 17.0 mph27.4 kmh 30.12 in1020.0 mb 0.00 in0.0 mm 0.00 in/hr0.0 mm/hr 0.00 in0.0 mm
05:04 PM 46.8°F8.2°C 15.2°F-9.3°C 28% 14.0 mph NW22.5 kmh NW 17.2 mph27.7 kmh 30.12 in1020.0 mb 0.00 in0.0 mm 0.00 in/hr0.0 mm/hr 0.00 in0.0 mm
05:09 PM 46.6°F8.1°C 16.0°F-8.9°C 29% 13.4 mph NW21.6 kmh NW 17.2 mph27.7 kmh 30.11 in1019.6 mb 0.00 in0.0 mm 0.00 in/hr0.0 mm/hr 0.00 in0.0 mm
05:14 PM 46.4°F8.0°C 15.9°F-8.9°C 29% 11.0 mph NW17.7 kmh NW 15.7 mph25.3 kmh 30.11 in1019.6 mb 0.00 in0.0 mm 0.00 in/hr0.0 mm/hr 0.00 in0.0 mm
05:19 PM 46.1°F7.8°C 16.4°F-8.7°C 30% 11.5 mph NNW18.5 kmh NNW 14.1 mph22.7 kmh 30.11 in1019.6 mb 0.00 in0.0 mm 0.00 in/hr0.0 mm/hr 0.00 in0.0 mm
05:24 PM 45.9°F7.7°C 16.3°F-8.7°C 30% 11.4 mph NW18.3 kmh NW 15.7 mph25.3 kmh 30.11 in1019.6 mb 0.00 in0.0 mm 0.00 in/hr0.0 mm/hr 0.00 in0.0 mm
05:29 PM 45.7°F7.6°C 16.7°F-8.5°C 31% 9.4 mph WNW15.1 kmh WNW 15.7 mph25.3 kmh 30.12 in1020.0 mb 0.00 in0.0 mm 0.00 in/hr0.0 mm/hr 0.00 in0.0 mm
05:33 PM 45.4°F7.4°C 16.5°F-8.6°C 31% 7.3 mph W11.7 kmh W 10.7 mph17.2 kmh 30.12 in1020.0 mb 0.00 in0.0 mm 0.00 in/hr0.0 mm/hr 0.00 in0.0 mm
05:38 PM 45.0°F7.2°C 16.1°F-8.8°C 31% 5.8 mph W9.3 kmh W 9.2 mph14.8 kmh 30.12 in1020.0 mb 0.00 in0.0 mm 0.00 in/hr0.0 mm/hr 0.00 in0.0 mm
05:43 PM 44.6°F7.0°C 15.8°F-9.0°C 31% 4.7 mph W7.6 kmh W 6.9 mph11.1 kmh 30.12 in1020.0 mb 0.00 in0.0 mm 0.00 in/hr0.0 mm/hr 0.00 in0.0 mm
05:48 PM 44.5°F6.9°C 15.7°F-9.1°C 31% 3.0 mph SW4.8 kmh SW 6.9 mph11.1 kmh 30.12 in1020.0 mb 0.00 in0.0 mm 0.00 in/hr0.0 mm/hr 0.00 in0.0 mm
05:53 PM 44.1°F6.7°C 15.3°F-9.3°C 31% 2.8 mph SSW4.5 kmh SSW 4.3 mph6.9 kmh 30.12 in1020.0 mb 0.00 in0.0 mm 0.00 in/hr0.0 mm/hr 0.00 in0.0 mm
05:58 PM 43.6°F6.4°C 14.9°F-9.5°C 31% 3.2 mph SW5.1 kmh SW 4.0 mph6.4 kmh 30.12 in1020.0 mb 0.00 in0.0 mm 0.00 in/hr0.0 mm/hr 0.00 in0.0 mm
06:04 PM 43.2°F6.2°C 13.9°F-10.1°C 30% 2.3 mph SW3.7 kmh SW 4.3 mph6.9 kmh 30.11 in1019.6 mb 0.00 in0.0 mm 0.00 in/hr0.0 mm/hr 0.00 in0.0 mm
06:09 PM 42.8°F6.0°C 13.5°F-10.3°C 30% 2.9 mph SW4.7 kmh SW 4.5 mph7.2 kmh 30.11 in1019.6 mb 0.00 in0.0 mm 0.00 in/hr0.0 mm/hr 0.00 in0.0 mm
06:14 PM 42.8°F6.0°C 14.1°F-9.9°C 31% 4.8 mph SW7.7 kmh SW 4.9 mph7.9 kmh 30.11 in1019.6 mb 0.00 in0.0 mm 0.00 in/hr0.0 mm/hr 0.00 in0.0 mm
06:19 PM 42.8°F6.0°C 14.9°F-9.5°C 32% 7.1 mph SW11.4 kmh SW 7.6 mph12.2 kmh 30.11 in1019.6 mb 0.00 in0.0 mm 0.00 in/hr0.0 mm/hr 0.00 in0.0 mm
06:24 PM 42.7°F5.9°C 14.7°F-9.6°C 32% 6.3 mph WSW10.1 kmh WSW 7.6 mph12.2 kmh 30.11 in1019.6 mb 0.00 in0.0 mm 0.00 in/hr0.0 mm/hr 0.00 in0.0 mm
06:29 PM 42.8°F6.0°C 14.9°F-9.5°C 32% 4.8 mph NW7.7 kmh NW 7.2 mph11.6 kmh 30.11 in1019.6 mb 0.00 in0.0 mm 0.00 in/hr0.0 mm/hr 0.00 in0.0 mm
06:34 PM 42.8°F6.0°C 14.9°F-9.5°C 32% 5.2 mph W8.4 kmh W 5.6 mph9.0 kmh 30.11 in1019.6 mb 0.00 in0.0 mm 0.00 in/hr0.0 mm/hr 0.00 in0.0 mm
06:39 PM 42.7°F5.9°C 14.7°F-9.6°C 32% 3.0 mph W4.8 kmh W 5.4 mph8.7 kmh 30.11 in1019.6 mb 0.00 in0.0 mm 0.00 in/hr0.0 mm/hr 0.00 in0.0 mm
06:44 PM 42.5°F5.8°C 14.6°F-9.7°C 32% Calm Calm 5.1 mph8.2 kmh 30.11 in1019.6 mb 0.00 in0.0 mm 0.00 in/hr0.0 mm/hr 0.00 in0.0 mm
06:49 PM 41.6°F5.3°C 13.8°F-10.1°C 32% 4.8 mph E7.7 kmh E 5.1 mph8.2 kmh 30.11 in1019.6 mb 0.00 in0.0 mm 0.00 in/hr0.0 mm/hr 0.00 in0.0 mm
06:54 PM 40.7°F4.8°C 13.7°F-10.2°C 33% 2.9 mph E4.7 kmh E 5.1 mph8.2 kmh 30.11 in1019.6 mb 0.00 in0.0 mm 0.00 in/hr0.0 mm/hr 0.00 in0.0 mm
06:59 PM 40.3°F4.6°C 13.3°F-10.4°C 33% 1.1 mph SE1.8 kmh SE 3.8 mph6.1 kmh 30.11 in1019.6 mb 0.00 in0.0 mm 0.00 in/hr0.0 mm/hr 0.00 in0.0 mm
07:04 PM 40.0°F4.4°C 13.1°F-10.5°C 33% 1.1 mph N1.8 kmh N 2.9 mph4.7 kmh 30.11 in1019.6 mb 0.00 in0.0 mm 0.00 in/hr0.0 mm/hr 0.00 in0.0 mm
07:09 PM 40.1°F4.5°C 13.2°F-10.4°C 33% 2.5 mph 4.0 kmh 3.8 mph6.1 kmh 30.11 in1019.6 mb 0.00 in0.0 mm 0.00 in/hr0.0 mm/hr 0.00 in0.0 mm
07:14 PM 40.1°F4.5°C 14.5°F-9.7°C 35% 1.1 mph NNW1.8 kmh NNW 3.8 mph6.1 kmh 30.11 in1019.6 mb 0.00 in0.0 mm 0.00 in/hr0.0 mm/hr 0.00 in0.0 mm
07:19 PM 40.3°F4.6°C 14.1°F-9.9°C 34% Calm Calm 2.5 mph4.0 kmh 30.11 in1019.6 mb 0.00 in0.0 mm 0.00 in/hr0.0 mm/hr 0.00 in0.0 mm
07:24 PM 40.1°F4.5°C 13.9°F-10.1°C 34% 1.8 mph SE2.9 kmh SE 1.8 mph2.9 kmh 30.11 in1019.6 mb 0.00 in0.0 mm 0.00 in/hr0.0 mm/hr 0.00 in0.0 mm
07:29 PM 40.0°F4.4°C 14.3°F-9.8°C 35% 0.4 mph SE0.6 kmh SE 1.8 mph2.9 kmh 30.11 in1019.6 mb 0.00 in0.0 mm 0.00 in/hr0.0 mm/hr 0.00 in0.0 mm
07:34 PM 39.4°F4.1°C 13.9°F-10.1°C 35% 1.7 mph E2.7 kmh E 2.5 mph4.0 kmh 30.11 in1019.6 mb 0.00 in0.0 mm 0.00 in/hr0.0 mm/hr 0.00 in0.0 mm
07:39 PM 38.9°F3.8°C 13.3°F-10.4°C 35% 1.5 mph E2.4 kmh E 2.5 mph4.0 kmh 30.10 in1019.3 mb 0.00 in0.0 mm 0.00 in/hr0.0 mm/hr 0.00 in0.0 mm
07:44 PM 38.3°F3.5°C 12.3°F-10.9°C 34% 4.2 mph NNE6.8 kmh NNE 4.3 mph6.9 kmh 30.10 in1019.3 mb 0.00 in0.0 mm 0.00 in/hr0.0 mm/hr 0.00 in0.0 mm
07:49 PM 37.8°F3.2°C 12.4°F-10.9°C 35% 3.8 mph N6.1 kmh N 4.7 mph7.6 kmh 30.10 in1019.3 mb 0.00 in0.0 mm 0.00 in/hr0.0 mm/hr 0.00 in0.0 mm
07:54 PM 37.3°F2.9°C 12.5°F-10.8°C 36% 1.5 mph NNW2.4 kmh NNW 4.7 mph7.6 kmh 30.10 in1019.3 mb 0.00 in0.0 mm 0.00 in/hr0.0 mm/hr 0.00 in0.0 mm
08:00 PM 36.9°F2.7°C 12.3°F-10.9°C 36% 2.4 mph NNW3.9 kmh NNW 4.0 mph6.4 kmh 30.10 in1019.3 mb 0.00 in0.0 mm 0.00 in/hr0.0 mm/hr 0.00 in0.0 mm
08:05 PM 36.7°F2.6°C 12.1°F-11.1°C 36% 2.2 mph 3.5 kmh 2.9 mph4.7 kmh 30.10 in1019.3 mb 0.00 in0.0 mm 0.00 in/hr0.0 mm/hr 0.00 in0.0 mm
08:10 PM 36.5°F2.5°C 11.9°F-11.2°C 36% 1.6 mph WSW2.6 kmh WSW 3.4 mph5.5 kmh 30.10 in1019.3 mb 0.00 in0.0 mm 0.00 in/hr0.0 mm/hr 0.00 in0.0 mm
08:14 PM 36.5°F2.5°C 12.5°F-10.8°C 37% 1.8 mph S2.9 kmh S 3.4 mph5.5 kmh 30.10 in1019.3 mb 0.00 in0.0 mm 0.00 in/hr0.0 mm/hr 0.00 in0.0 mm
08:19 PM 36.4°F2.4°C 12.4°F-10.9°C 37% 0.8 mph NNE1.3 kmh NNE 1.8 mph2.9 kmh 30.10 in1019.3 mb 0.00 in0.0 mm 0.00 in/hr0.0 mm/hr 0.00 in0.0 mm
08:24 PM 36.5°F2.5°C 12.5°F-10.8°C 37% 4.1 mph N6.6 kmh N 4.7 mph7.6 kmh 30.10 in1019.3 mb 0.00 in0.0 mm 0.00 in/hr0.0 mm/hr 0.00 in0.0 mm
08:29 PM 36.7°F2.6°C 12.7°F-10.7°C 37% 3.0 mph NE4.8 kmh NE 4.7 mph7.6 kmh 30.10 in1019.3 mb 0.00 in0.0 mm 0.00 in/hr0.0 mm/hr 0.00 in0.0 mm
08:34 PM 36.9°F2.7°C 13.5°F-10.3°C 38% 4.4 mph ENE7.1 kmh ENE 4.9 mph7.9 kmh 30.10 in1019.3 mb 0.00 in0.0 mm 0.00 in/hr0.0 mm/hr 0.00 in0.0 mm
08:39 PM 36.7°F2.6°C 13.3°F-10.4°C 38% 4.7 mph NE7.6 kmh NE 5.6 mph9.0 kmh 30.10 in1019.3 mb 0.00 in0.0 mm 0.00 in/hr0.0 mm/hr 0.00 in0.0 mm
08:44 PM 36.4°F2.4°C 13.7°F-10.2°C 39% 5.3 mph ENE8.5 kmh ENE 6.5 mph10.5 kmh 30.10 in1019.3 mb 0.00 in0.0 mm 0.00 in/hr0.0 mm/hr 0.00 in0.0 mm
08:49 PM 36.5°F2.5°C 13.9°F-10.1°C 39% 5.0 mph E8.0 kmh E 6.5 mph10.5 kmh 30.10 in1019.3 mb 0.00 in0.0 mm 0.00 in/hr0.0 mm/hr 0.00 in0.0 mm
08:54 PM 36.9°F2.7°C 14.1°F-9.9°C 39% 3.8 mph ENE6.1 kmh ENE 5.4 mph8.7 kmh 30.11 in1019.6 mb 0.00 in0.0 mm 0.00 in/hr0.0 mm/hr 0.00 in0.0 mm
09:00 PM 36.7°F2.6°C 14.1°F-9.9°C 39% 3.1 mph ENE5.0 kmh ENE 4.7 mph7.6 kmh 30.11 in1019.6 mb 0.00 in0.0 mm 0.00 in/hr0.0 mm/hr 0.00 in0.0 mm
09:05 PM 36.5°F2.5°C 13.9°F-10.1°C 39% 3.2 mph NNE5.1 kmh NNE 3.8 mph6.1 kmh 30.11 in1019.6 mb 0.00 in0.0 mm 0.00 in/hr0.0 mm/hr 0.00 in0.0 mm
09:10 PM 36.4°F2.4°C 13.7°F-10.2°C 39% Calm Calm 4.0 mph6.4 kmh 30.11 in1019.6 mb 0.00 in0.0 mm 0.00 in/hr0.0 mm/hr 0.00 in0.0 mm
09:15 PM 36.0°F2.2°C 13.3°F-10.4°C 39% 1.3 mph E2.1 kmh E 4.0 mph6.4 kmh 30.10 in1019.3 mb 0.00 in0.0 mm 0.00 in/hr0.0 mm/hr 0.00 in0.0 mm
09:20 PM 35.6°F2.0°C 13.1°F-10.5°C 39% 2.6 mph E4.2 kmh E 2.7 mph4.3 kmh 30.10 in1019.3 mb 0.00 in0.0 mm 0.00 in/hr0.0 mm/hr 0.00 in0.0 mm
09:25 PM 35.5°F1.9°C 12.9°F-10.6°C 39% 1.9 mph ESE3.1 kmh ESE 3.1 mph5.0 kmh 30.10 in1019.3 mb 0.00 in0.0 mm 0.00 in/hr0.0 mm/hr 0.00 in0.0 mm
09:30 PM 35.1°F1.7°C 12.5°F-10.8°C 39% 0.2 mph SE0.3 kmh SE 3.1 mph5.0 kmh 30.10 in1019.3 mb 0.00 in0.0 mm 0.00 in/hr0.0 mm/hr 0.00 in0.0 mm
09:35 PM 34.9°F1.6°C 13.1°F-10.5°C 40% 1.8 mph E2.9 kmh E 3.1 mph5.0 kmh 30.10 in1019.3 mb 0.00 in0.0 mm 0.00 in/hr0.0 mm/hr 0.00 in0.0 mm
09:40 PM 34.6°F1.4°C 12.7°F-10.7°C 40% 0.7 mph ESE1.1 kmh ESE 2.2 mph3.5 kmh 30.09 in1019.0 mb 0.00 in0.0 mm 0.00 in/hr0.0 mm/hr 0.00 in0.0 mm
09:44 PM 34.4°F1.3°C 12.5°F-10.8°C 40% 0.8 mph 1.3 kmh 2.2 mph3.5 kmh 30.09 in1019.0 mb 0.00 in0.0 mm 0.00 in/hr0.0 mm/hr 0.00 in0.0 mm
09:49 PM 34.2°F1.2°C 12.4°F-10.9°C 40% Calm Calm 1.3 mph2.1 kmh 30.09 in1019.0 mb 0.00 in0.0 mm 0.00 in/hr0.0 mm/hr 0.00 in0.0 mm
09:54 PM 34.2°F1.2°C 12.9°F-10.6°C 41% 1.8 mph E2.9 kmh E 1.8 mph2.9 kmh 30.09 in1019.0 mb 0.00 in0.0 mm 0.00 in/hr0.0 mm/hr 0.00 in0.0 mm
10:00 PM 34.0°F1.1°C 12.7°F-10.7°C 41% 1.8 mph E2.9 kmh E 2.0 mph3.2 kmh 30.08 in1018.6 mb 0.00 in0.0 mm 0.00 in/hr0.0 mm/hr 0.00 in0.0 mm
10:05 PM 34.2°F1.2°C 13.4°F-10.3°C 42% 3.6 mph E5.8 kmh E 3.6 mph5.8 kmh 30.08 in1018.6 mb 0.00 in0.0 mm 0.00 in/hr0.0 mm/hr 0.00 in0.0 mm
10:10 PM 34.2°F1.2°C 13.4°F-10.3°C 42% 3.4 mph NNE5.5 kmh NNE 5.4 mph8.7 kmh 30.08 in1018.6 mb 0.00 in0.0 mm 0.00 in/hr0.0 mm/hr 0.00 in0.0 mm
10:15 PM 34.2°F1.2°C 13.4°F-10.3°C 42% 0.7 mph 1.1 kmh 5.4 mph8.7 kmh 30.08 in1018.6 mb 0.00 in0.0 mm 0.00 in/hr0.0 mm/hr 0.00 in0.0 mm
10:20 PM 33.8°F1.0°C 12.6°F-10.8°C 41% 2.3 mph NNE3.7 kmh NNE 3.8 mph6.1 kmh 30.08 in1018.6 mb 0.00 in0.0 mm 0.00 in/hr0.0 mm/hr 0.00 in0.0 mm
10:25 PM 33.8°F1.0°C 12.6°F-10.8°C 41% 4.9 mph NE7.9 kmh NE 4.9 mph7.9 kmh 30.08 in1018.6 mb 0.00 in0.0 mm 0.00 in/hr0.0 mm/hr 0.00 in0.0 mm
10:30 PM 33.7°F0.9°C 12.9°F-10.6°C 42% 3.5 mph NE5.6 kmh NE 4.9 mph7.9 kmh 30.08 in1018.6 mb 0.00 in0.0 mm 0.00 in/hr0.0 mm/hr 0.00 in0.0 mm
10:35 PM 33.5°F0.8°C 12.2°F-11.0°C 41% 5.3 mph NNE8.5 kmh NNE 5.4 mph8.7 kmh 30.08 in1018.6 mb 0.00 in0.0 mm 0.00 in/hr0.0 mm/hr 0.00 in0.0 mm
10:40 PM 32.9°F0.5°C 12.2°F-11.0°C 42% 2.3 mph NNE3.7 kmh NNE 5.8 mph9.3 kmh 30.08 in1018.6 mb 0.00 in0.0 mm 0.00 in/hr0.0 mm/hr 0.00 in0.0 mm
10:45 PM 32.8°F0.4°C 12.1°F-11.1°C 42% 2.5 mph WSW4.0 kmh WSW 5.8 mph9.3 kmh 30.08 in1018.6 mb 0.00 in0.0 mm 0.00 in/hr0.0 mm/hr 0.00 in0.0 mm
10:50 PM 32.6°F0.3°C 12.0°F-11.1°C 42% Calm Calm 2.9 mph4.7 kmh 30.08 in1018.6 mb 0.00 in0.0 mm 0.00 in/hr0.0 mm/hr 0.00 in0.0 mm
10:55 PM 32.2°F0.1°C 11.1°F-11.6°C 41% 2.0 mph NNE3.2 kmh NNE 2.9 mph4.7 kmh 30.07 in1018.3 mb 0.00 in0.0 mm 0.00 in/hr0.0 mm/hr 0.00 in0.0 mm
11:00 PM 31.9°F-0.1°C 10.8°F-11.8°C 41% 1.6 mph 2.6 kmh 3.1 mph5.0 kmh 30.08 in1018.6 mb 0.00 in0.0 mm 0.00 in/hr0.0 mm/hr 0.00 in0.0 mm
11:05 PM 31.9°F-0.1°C 11.3°F-11.5°C 42% 4.1 mph NNE6.6 kmh NNE 4.7 mph7.6 kmh 30.07 in1018.3 mb 0.00 in0.0 mm 0.00 in/hr0.0 mm/hr 0.00 in0.0 mm
11:10 PM 32.0°F0.0°C 12.0°F-11.1°C 43% 2.8 mph NNE4.5 kmh NNE 4.7 mph7.6 kmh 30.07 in1018.3 mb 0.00 in0.0 mm 0.00 in/hr0.0 mm/hr 0.00 in0.0 mm
11:15 PM 32.2°F0.1°C 12.2°F-11.0°C 43% 2.3 mph NE3.7 kmh NE 4.5 mph7.2 kmh 30.07 in1018.3 mb 0.00 in0.0 mm 0.00 in/hr0.0 mm/hr 0.00 in0.0 mm
11:20 PM 32.4°F0.2°C 12.2°F-11.0°C 43% 1.1 mph 1.8 kmh 2.5 mph4.0 kmh 30.07 in1018.3 mb 0.00 in0.0 mm 0.00 in/hr0.0 mm/hr 0.00 in0.0 mm
11:25 PM 32.4°F0.2°C 12.2°F-11.0°C 43% Calm Calm 1.1 mph1.8 kmh 30.06 in1017.9 mb 0.00 in0.0 mm 0.00 in/hr0.0 mm/hr 0.00 in0.0 mm
11:30 PM 32.4°F0.2°C 11.8°F-11.2°C 42% 0.2 mph SW0.3 kmh SW 0.2 mph0.3 kmh 30.06 in1017.9 mb 0.00 in0.0 mm 0.00 in/hr0.0 mm/hr 0.00 in0.0 mm
11:35 PM 32.2°F0.1°C 12.2°F-11.0°C 43% 2.0 mph SW3.2 kmh SW 2.7 mph4.3 kmh 30.06 in1017.9 mb 0.00 in0.0 mm 0.00 in/hr0.0 mm/hr 0.00 in0.0 mm
11:40 PM 31.9°F-0.1°C 11.8°F-11.2°C 43% 1.5 mph SW2.4 kmh SW 3.4 mph5.5 kmh 30.06 in1017.9 mb 0.00 in0.0 mm 0.00 in/hr0.0 mm/hr 0.00 in0.0 mm
11:45 PM 31.5°F-0.3°C 11.4°F-11.4°C 43% 0.6 mph NW1.0 kmh NW 3.4 mph5.5 kmh 30.06 in1017.9 mb 0.00 in0.0 mm 0.00 in/hr0.0 mm/hr 0.00 in0.0 mm
11:50 PM 31.3°F-0.4°C 11.4°F-11.4°C 43% 0.2 mph NE0.3 kmh NE 2.2 mph3.5 kmh 30.06 in1017.9 mb 0.00 in0.0 mm 0.00 in/hr0.0 mm/hr 0.00 in0.0 mm
11:55 PM 31.1°F-0.5°C 11.2°F-11.6°C 43% 2.9 mph ENE4.7 kmh ENE 3.1 mph5.0 kmh 30.06 in1017.9 mb 0.00 in0.0 mm 0.00 in/hr0.0 mm/hr 0.00 in0.0 mm